Pagina principale
METAR-TAF:

METAR-TAF

Aeroporti :

Aeroporto di Trapani-Birgi

Trapani, Italia

latitudine: 37-55N, longitudine: 012-30E, altezza: 7 m

Osservazione

Il bollettino è stato emesso 21 minuti fa, alle 18:55 UTC
Vento 6 kt da ovest/nord-ovest
Temperature 23°C
Umidità 78%
Pressione 1013 hPa
Visibilità 10 km o più
Poco nuvoloso ad un'altezza di 1800 ft

METAR: LICT 231855Z 29006KT 9999 FEW018 23/19 Q1013 RMK FEW VIS MIN 9999 WIND THR13 27005KT BLU

Ora: 21:16 (19:16 UTC)

Previsione

Il bollettino è stato emesso 2 ore e 16 minuti fa, alle 17:00 UTC
Previsione valida dal 23 alle 18 UTC al 24 alle 03 UTC
Vento 7 kt da ovest
Visibilità 10 km o più
Poco nuvoloso ad un'altezza di 1500 ft
Nubi sparse ad un'altezza di 2000 ft
Evoluzione graduale
dal 23 alle 21 UTC al 23 alle 23 UTC
Nuvoloso ad un'altezza di 1500 ft

TAF: LICT 231700Z 2318/2403 26007KT 9999 FEW015 SCT020 BECMG 2321/2323 BKN015

Osservazioni e previsioni meteorologiche di più di 4000 aeroporti (messaggi METAR e TAF).

Le stazioni disponibili sono rappresentate dai dischi gialli e rossi sulla carta.

Puntare il mouse per vedere il nome della stazione.

Clicca sopra per visualizzare le osservazioni e previsioni meteorologiche.

Per cambiare la mappa : fare clic sui pulsanti verdi con una croce nera per ingrandire, il pulsante verde con un trattino per diminuire, o sulla freccia verde per le mappe adiacenti.


METAR-TAF: